Time;durP1;ratioP1;P1;durP2;ratioP2;P2;SDS_P1;SDS_P2;PMS_P1;PMS_P2;Temp;Humidity;BMP_temperature;BMP_pressure;BME280_temperature;BME280_humidity;BME280_pressure;Samples;Min_cycle;Max_cycle;Signal;HPM_P1;HPM_P2
2022/09/10 00:00:26;;;;;;;;;;;;;;;14.95;100.00;100783.91;5071908;28;19931;-32
2022/09/10 00:02:53;;;;;;;;;;;;;;;14.93;100.00;100780.59;5070898;28;19924;-35
2022/09/10 00:05:21;;;;;;;;;;;;;;;14.92;100.00;100782.59;5071594;28;20293;-33
2022/09/10 00:07:48;;;;;;;;;;;;;;;14.92;100.00;100787.38;5071518;28;19932;-31
2022/09/10 00:10:17;;;;;;;;;;;;;;;14.91;100.00;100794.97;5070261;28;19978;-32
2022/09/10 00:12:47;;;;;;;;;;;;;;;14.92;100.00;100793.00;5071171;28;19935;-38
2022/09/10 00:15:14;;;;;;;;;;;;;;;14.90;100.00;100787.72;5070710;28;19973;-31
2022/09/10 00:17:43;;;;;;;;;;;;;;;14.90;100.00;100789.69;5070449;28;20324;-34
2022/09/10 00:20:11;;;;;;;;;;;;;;;14.90;100.00;100792.50;5071213;28;19968;-31
2022/09/10 00:22:38;;;;;;;;;;;;;;;14.88;100.00;100787.22;5071080;28;20001;-31
2022/09/10 00:25:06;;;;;;;;;;;;;;;14.88;100.00;100795.63;5069944;28;19928;-32
2022/09/10 00:27:35;;;;;;;;;;;;;;;14.88;100.00;100795.63;5071083;28;20043;-37
2022/09/10 00:30:03;;;;;;;;;;;;;;;14.86;100.00;100795.13;5062802;28;19968;-32
2022/09/10 00:32:31;;;;;;;;;;;;;;;14.86;100.00;100805.53;5070723;28;20084;-33
2022/09/10 00:35:00;;;;;;;;;;;;;;;14.86;100.00;100805.53;5051206;28;19928;-33
2022/09/10 00:37:28;;;;;;;;;;;;;;;14.85;100.00;100809.50;5070477;28;19932;-34
2022/09/10 00:39:55;;;;;;;;;;;;;;;14.83;100.00;100810.66;5052678;28;19928;-35
2022/09/10 00:42:24;;;;;;;;;;;;;;;14.83;100.00;100812.66;5058724;28;20016;-31
2022/09/10 00:44:57;;;;;;;;;;;;;;;14.83;100.00;100813.47;5066606;28;19928;-34
2022/09/10 00:47:26;;;;;;;;;;;;;;;14.82;100.00;100813.78;5071304;28;19936;-32
2022/09/10 00:49:57;;;;;;;;;;;;;;;14.81;100.00;100815.78;5070742;28;20401;-32
2022/09/10 00:52:26;;;;;;;;;;;;;;;14.81;100.00;100812.97;5032943;28;19928;-32
2022/09/10 00:54:54;;;;;;;;;;;;;;;14.82;100.00;100813.78;5064897;28;19959;-38
2022/09/10 00:57:22;;;;;;;;;;;;;;;14.81;100.00;100809.34;5071227;28;19955;-34
2022/09/10 00:59:53;;;;;;;;;;;;;;;14.81;100.00;100806.53;5052208;28;19935;-39
2022/09/10 01:02:20;;;;;;;;;;;;;;;14.82;100.00;100805.38;5039108;28;19924;-40
2022/09/10 01:04:50;;;;;;;;;;;;;;;14.81;100.00;100804.53;5070794;28;19928;-37
2022/09/10 01:07:18;;;;;;;;;;;;;;;14.82;100.00;100803.38;5052472;28;19924;-31
2022/09/10 01:09:47;;;;;;;;;;;;;;;14.82;100.00;100811.81;5053787;28;19928;-36
2022/09/10 01:12:22;;;;;;;;;;;;;;;14.81;100.00;100812.97;5052893;28;20074;-39
2022/09/10 01:15:04;;;;;;;;;;;;;;;14.82;100.00;100811.00;5070264;28;19928;-32
2022/09/10 01:17:37;;;;;;;;;;;;;;;14.82;100.00;100811.81;5064621;28;19935;-32
2022/09/10 01:20:17;;;;;;;;;;;;;;;14.82;100.00;100806.19;5052204;28;20310;-35
2022/09/10 01:22:58;;;;;;;;;;;;;;;14.82;100.00;100809.00;5066692;28;19932;-42
2022/09/10 01:25:35;;;;;;;;;;;;;;;14.83;100.00;100810.66;5070744;28;20432;-37
2022/09/10 01:28:07;;;;;;;;;;;;;;;14.82;100.00;100811.81;5049809;28;20365;-35
2022/09/10 01:30:36;;;;;;;;;;;;;;;14.82;100.00;100806.19;5056150;28;19924;-36
2022/09/10 01:33:06;;;;;;;;;;;;;;;14.81;100.00;100810.16;5056577;28;19930;-32
2022/09/10 01:35:41;;;;;;;;;;;;;;;14.82;100.00;100808.19;5055658;28;19986;-31
2022/09/10 01:38:16;;;;;;;;;;;;;;;14.80;100.00;100804.88;5074348;28;19928;-33
2022/09/10 01:40:45;;;;;;;;;;;;;;;14.80;100.00;100802.88;5055822;28;20297;-38
2022/09/10 01:43:18;;;;;;;;;;;;;;;14.78;100.00;100804.41;5056329;28;19924;-40
2022/09/10 01:45:56;;;;;;;;;;;;;;;14.79;100.00;100806.84;5056503;28;19924;-37
2022/09/10 01:48:38;;;;;;;;;;;;;;;14.78;100.00;100808.03;5055305;28;19932;-32
2022/09/10 01:51:09;;;;;;;;;;;;;;;14.78;100.00;100808.03;5054192;28;20405;-35
2022/09/10 01:53:47;;;;;;;;;;;;;;;14.78;100.00;100813.66;5056184;28;19929;-37
2022/09/10 01:56:24;;;;;;;;;;;;;;;14.77;100.00;100812.00;5055443;28;19924;-34
2022/09/10 01:58:56;;;;;;;;;;;;;;;14.77;100.00;100809.19;5066919;28;20381;-41
2022/09/10 02:01:36;;;;;;;;;;;;;;;14.76;100.00;100810.34;5056091;28;20328;-38
2022/09/10 02:04:06;;;;;;;;;;;;;;;14.75;100.00;100805.88;5055302;28;19969;-32
2022/09/10 02:06:36;;;;;;;;;;;;;;;14.75;100.00;100814.31;5056006;28;19924;-32
2022/09/10 02:09:05;;;;;;;;;;;;;;;14.75;100.00;100810.66;5063464;28;19932;-32
2022/09/10 02:11:43;;;;;;;;;;;;;;;14.73;100.00;100804.56;5055775;28;20010;-35
2022/09/10 02:14:13;;;;;;;;;;;;;;;14.73;100.00;100815.78;5055851;28;19974;-38
2022/09/10 02:17:09;;;;;;;;;;;;;;;14.71;100.00;100813.31;5072782;28;19929;-31
2022/09/10 02:19:37;;;;;;;;;;;;;;;14.70;100.00;100813.63;5055518;28;19946;-31
2022/09/10 02:22:05;;;;;;;;;;;;;;;14.70;100.00;100819.25;5055494;28;19924;-35
2022/09/10 02:24:33;;;;;;;;;;;;;;;14.69;100.00;100815.59;5072928;28;19925;-37
2022/09/10 02:27:00;;;;;;;;;;;;;;;14.67;100.00;100822.72;5055598;28;19936;-39
2022/09/10 02:29:30;;;;;;;;;;;;;;;14.66;100.00;100815.44;5055258;28;20344;-31
2022/09/10 02:31:58;;;;;;;;;;;;;;;14.65;100.00;100817.41;5070821;28;19932;-32
2022/09/10 02:34:26;;;;;;;;;;;;;;;14.64;100.00;100818.56;5055308;28;19935;-31
2022/09/10 02:36:56;;;;;;;;;;;;;;;14.64;100.00;100820.53;5054681;28;19928;-32
2022/09/10 02:39:24;;;;;;;;;;;;;;;14.62;100.00;100820.88;5065296;28;19924;-34
2022/09/10 02:41:52;;;;;;;;;;;;;;;14.61;100.00;100824.84;5073409;28;19925;-33
2022/09/10 02:44:22;;;;;;;;;;;;;;;14.60;100.00;100823.19;5054299;28;19929;-35
2022/09/10 02:46:51;;;;;;;;;;;;;;;14.58;100.00;100828.31;5073183;28;19970;-31
2022/09/10 02:49:19;;;;;;;;;;;;;;;14.56;100.00;100827.81;5054834;28;19928;-31
2022/09/10 02:51:49;;;;;;;;;;;;;;;14.55;100.00;100831.78;5054452;28;19928;-31
2022/09/10 02:54:18;;;;;;;;;;;;;;;14.54;100.00;100826.50;5054701;28;19928;-31
2022/09/10 02:56:48;;;;;;;;;;;;;;;14.52;100.00;100831.59;5055208;28;20344;-32
2022/09/10 02:59:16;;;;;;;;;;;;;;;14.51;100.00;100829.94;5053593;28;20405;-32
2022/09/10 03:01:44;;;;;;;;;;;;;;;14.50;100.00;100829.13;5055142;28;19929;-32
2022/09/10 03:04:14;;;;;;;;;;;;;;;14.49;100.00;100833.06;5072546;28;20393;-32
2022/09/10 03:06:42;;;;;;;;;;;;;;;14.48;100.00;100832.25;5054361;28;20285;-31
2022/09/10 03:09:10;;;;;;;;;;;;;;;14.46;100.00;100834.56;5057523;28;19928;-31
2022/09/10 03:11:38;;;;;;;;;;;;;;;14.46;100.00;100830.91;5072473;28;19994;-32
2022/09/10 03:14:07;;;;;;;;;;;;;;;14.46;100.00;100836.53;5072352;28;19982;-32
2022/09/10 03:16:35;;;;;;;;;;;;;;;14.45;100.00;100837.69;5054319;28;19925;-32
2022/09/10 03:19:05;;;;;;;;;;;;;;;14.45;100.00;100844.13;5053051;28;19925;-32
2022/09/10 03:21:34;;;;;;;;;;;;;;;14.44;100.00;100842.47;5052156;28;20784;-32
2022/09/10 03:24:02;;;;;;;;;;;;;;;14.45;100.00;100844.13;5052548;28;19974;-32
2022/09/10 03:26:31;;;;;;;;;;;;;;;14.45;100.00;100840.50;5051876;28;20019;-32
2022/09/10 03:28:59;;;;;;;;;;;;;;;14.45;100.00;100838.50;5071093;28;20042;-31
2022/09/10 03:31:30;;;;;;;;;;;;;;;14.46;100.00;100844.94;5048315;28;20258;-34
2022/09/10 03:33:58;;;;;;;;;;;;;;;14.44;100.00;100841.63;5052193;28;19928;-31
2022/09/10 03:36:30;;;;;;;;;;;;;;;14.43;100.00;100842.78;5053775;28;19974;-33
2022/09/10 03:38:59;;;;;;;;;;;;;;;14.41;100.00;100848.72;5066600;28;19970;-33
2022/09/10 03:41:30;;;;;;;;;;;;;;;14.41;100.00;100845.91;5045264;28;20035;-32
2022/09/10 03:43:59;;;;;;;;;;;;;;;14.41;100.00;100847.91;5054215;28;20515;-33
2022/09/10 03:46:27;;;;;;;;;;;;;;;14.41;100.00;100850.72;5049393;28;19947;-31
2022/09/10 03:48:58;;;;;;;;;;;;;;;14.39;100.00;100855.78;5053267;28;20338;-34
2022/09/10 03:51:27;;;;;;;;;;;;;;;14.37;100.00;100846.91;5051646;28;19931;-31
2022/09/10 03:53:57;;;;;;;;;;;;;;;14.36;100.00;100850.84;5054234;28;20039;-32
2022/09/10 03:56:28;;;;;;;;;;;;;;;14.32;100.00;100849.84;5052930;28;19925;-32
2022/09/10 03:58:56;;;;;;;;;;;;;;;14.29;100.00;100848.50;5054054;28;19924;-31
2022/09/10 04:01:27;;;;;;;;;;;;;;;14.26;100.00;100845.50;5052513;28;19932;-31
2022/09/10 04:03:56;;;;;;;;;;;;;;;14.23;100.00;100852.59;5061212;28;20448;-32
2022/09/10 04:06:27;;;;;;;;;;;;;;;14.20;100.00;100856.03;5053290;28;19931;-31
2022/09/10 04:08:55;;;;;;;;;;;;;;;14.17;100.00;100865.13;5052923;28;19924;-33
2022/09/10 04:11:26;;;;;;;;;;;;;;;14.14;100.00;100871.41;5053161;28;19932;-31
2022/09/10 04:13:56;;;;;;;;;;;;;;;14.12;100.00;100874.53;5053692;28;19928;-31
2022/09/10 04:16:26;;;;;;;;;;;;;;;14.11;100.00;100880.44;5052187;28;19928;-31
2022/09/10 04:18:54;;;;;;;;;;;;;;;14.09;100.00;100879.94;5053322;28;20354;-32
2022/09/10 04:21:22;;;;;;;;;;;;;;;14.08;100.00;100887.53;5053362;28;19924;-31
2022/09/10 04:23:53;;;;;;;;;;;;;;;14.06;100.00;100889.84;5052302;28;19929;-32
2022/09/10 04:26:21;;;;;;;;;;;;;;;14.07;100.00;100888.69;5071492;28;19924;-32
2022/09/10 04:28:50;;;;;;;;;;;;;;;14.06;100.00;100892.63;5063365;28;19939;-33
2022/09/10 04:31:19;;;;;;;;;;;;;;;14.05;100.00;100890.97;5050052;28;20374;-33
2022/09/10 04:33:47;;;;;;;;;;;;;;;14.03;100.00;100895.25;5053060;28;19932;-34
2022/09/10 04:36:19;;;;;;;;;;;;;;;14.01;100.00;100898.38;5053359;28;19929;-32
2022/09/10 04:38:46;;;;;;;;;;;;;;;13.99;100.00;100903.47;5047911;28;20366;-32
2022/09/10 04:41:18;;;;;;;;;;;;;;;13.98;100.00;100907.47;5053047;28;19955;-32
2022/09/10 04:43:47;;;;;;;;;;;;;;;13.97;100.00;100913.41;5057881;28;19929;-32
2022/09/10 04:46:16;;;;;;;;;;;;;;;13.96;100.00;100920.16;5053237;28;19951;-31
2022/09/10 04:48:45;;;;;;;;;;;;;;;13.94;100.00;100922.44;5058598;28;20015;-32
2022/09/10 04:51:17;;;;;;;;;;;;;;;13.95;100.00;100916.50;5052316;28;19925;-34
2022/09/10 04:53:47;;;;;;;;;;;;;;;13.95;100.00;100926.91;5057111;28;19925;-32
2022/09/10 04:56:15;;;;;;;;;;;;;;;13.96;100.00;100917.34;5066330;28;20301;-42
2022/09/10 04:58:43;;;;;;;;;;;;;;;13.98;100.00;100918.69;5069965;28;19986;-39
2022/09/10 05:01:12;;;;;;;;;;;;;;;14.00;100.00;100918.34;5052100;28;19928;-42
2022/09/10 05:03:42;;;;;;;;;;;;;;;14.02;100.00;100919.69;5055999;28;19929;-37
2022/09/10 05:06:14;;;;;;;;;;;;;;;14.03;100.00;100926.94;5055955;28;19932;-34
2022/09/10 05:08:44;;;;;;;;;;;;;;;14.03;100.00;100929.75;5055788;28;19963;-32
2022/09/10 05:11:12;;;;;;;;;;;;;;;14.02;100.00;100930.91;5056428;28;19931;-36
2022/09/10 05:13:40;;;;;;;;;;;;;;;14.00;100.00;100930.38;5055395;28;20429;-36
2022/09/10 05:16:08;;;;;;;;;;;;;;;13.98;100.00;100929.91;5056664;28;20412;-35
2022/09/10 05:18:35;;;;;;;;;;;;;;;13.96;100.00;100926.59;5056532;28;19928;-36
2022/09/10 05:21:04;;;;;;;;;;;;;;;13.93;100.00;100932.84;5056922;28;20266;-33
2022/09/10 05:23:35;;;;;;;;;;;;;;;13.91;100.00;100928.69;5056323;28;20007;-38
2022/09/10 05:26:02;;;;;;;;;;;;;;;13.89;100.00;100933.78;5056222;28;19925;-38
2022/09/10 05:28:30;;;;;;;;;;;;;;;13.87;100.00;100945.31;5074293;28;19978;-41
2022/09/10 05:30:58;;;;;;;;;;;;;;;13.85;100.00;100941.19;5065300;28;19933;-40
2022/09/10 05:33:27;;;;;;;;;;;;;;;13.84;100.00;100951.56;5054246;28;20018;-42
2022/09/10 05:35:55;;;;;;;;;;;;;;;13.83;100.00;100957.50;5055192;28;19991;-34
2022/09/10 05:38:23;;;;;;;;;;;;;;;13.81;100.00;100949.41;5072973;28;19928;-41
2022/09/10 05:40:53;;;;;;;;;;;;;;;13.83;100.00;100957.50;5055613;28;19932;-31
2022/09/10 05:43:23;;;;;;;;;;;;;;;13.87;100.00;100945.31;5055333;28;21419;-33
2022/09/10 05:45:51;;;;;;;;;;;;;;;13.91;100.00;100954.78;5061687;28;19929;-37
2022/09/10 05:48:20;;;;;;;;;;;;;;;13.97;100.00;100958.28;5055411;28;19960;-35
2022/09/10 05:50:48;;;;;;;;;;;;;;;14.03;100.00;100966.22;5055722;28;19930;-39
2022/09/10 05:53:16;;;;;;;;;;;;;;;14.10;100.00;100960.19;5066104;28;19959;-35
2022/09/10 05:55:44;;;;;;;;;;;;;;;14.17;100.00;100962.53;5050558;28;19981;-37
2022/09/10 05:58:13;;;;;;;;;;;;;;;14.23;100.00;100973.28;5055670;28;19936;-34
2022/09/10 06:00:43;;;;;;;;;;;;;;;14.31;100.00;100971.69;5055195;28;19933;-34
2022/09/10 06:03:11;;;;;;;;;;;;;;;14.39;100.00;100970.91;5055388;28;19951;-37
2022/09/10 06:05:50;;;;;;;;;;;;;;;14.48;100.00;100971.81;5055189;28;20005;-35
2022/09/10 06:08:21;;;;;;;;;;;;;;;14.57;100.00;100969.06;5055405;28;20290;-33
2022/09/10 06:10:55;;;;;;;;;;;;;;;14.61;100.00;100967.25;5054439;28;19974;-36
2022/09/10 06:13:26;;;;;;;;;;;;;;;14.65;100.00;100966.28;5055198;28;19974;-35
2022/09/10 06:15:55;;;;;;;;;;;;;;;14.67;100.00;100972.41;5054769;28;19932;-42
2022/09/10 06:18:25;;;;;;;;;;;;;;;14.71;100.00;100976.22;5055530;28;19924;-32
2022/09/10 06:21:01;;;;;;;;;;;;;;;14.74;100.00;100980.38;5061130;28;20275;-35
2022/09/10 06:23:30;;;;;;;;;;;;;;;14.79;100.00;100978.22;5055130;28;20326;-34
2022/09/10 06:26:03;;;;;;;;;;;;;;;14.85;100.00;100980.88;5059974;28;20286;-37
2022/09/10 06:28:33;;;;;;;;;;;;;;;14.92;100.00;100990.50;5055640;28;20366;-40
2022/09/10 06:31:03;;;;;;;;;;;;;;;15.01;100.00;100987.72;5072026;28;20447;-33
2022/09/10 06:33:32;;;;;;;;;;;;;;;15.09;100.00;100986.94;5055042;28;20304;-36
2022/09/10 06:36:02;;;;;;;;;;;;;;;15.19;100.00;100989.41;5054348;28;19932;-41
2022/09/10 06:38:32;;;;;;;;;;;;;;;15.31;100.00;100986.81;5058644;28;19928;-33
2022/09/10 06:41:03;;;;;;;;;;;;;;;15.45;100.00;100993.13;5054685;28;19924;-38
2022/09/10 06:43:40;;;;;;;;;;;;;;;15.59;100.00;100995.00;5050469;28;19974;-34
2022/09/10 06:46:17;;;;;;;;;;;;;;;15.74;100.00;101005.75;5056012;28;19928;-31
2022/09/10 06:49:14;;;;;;;;;;;;;;;15.99;100.00;101004.91;5055417;28;19928;-33
2022/09/10 06:51:46;;;;;;;;;;;;;;;16.46;100.00;101007.81;5054197;28;20115;-37
2022/09/10 06:54:14;;;;;;;;;;;;;;;17.03;100.00;101011.13;5072732;28;20015;-36
2022/09/10 06:56:42;;;;;;;;;;;;;;;17.58;100.00;101005.31;5056366;28;19929;-33
2022/09/10 06:59:13;;;;;;;;;;;;;;;18.11;100.00;101019.88;5058740;28;19979;-41
2022/09/10 07:01:46;;;;;;;;;;;;;;;18.65;100.00;101026.31;5044860;28;19935;-36
2022/09/10 07:04:14;;;;;;;;;;;;;;;19.11;100.00;101022.28;5053084;28;19924;-35
2022/09/10 07:06:44;;;;;;;;;;;;;;;19.50;100.00;101034.06;5052194;28;19960;-35
2022/09/10 07:09:15;;;;;;;;;;;;;;;19.86;100.00;101036.84;5054421;28;20304;-36
2022/09/10 07:11:52;;;;;;;;;;;;;;;20.09;100.00;101034.28;5053216;28;20374;-36
2022/09/10 07:14:20;;;;;;;;;;;;;;;20.44;100.00;101047.88;5071163;28;19925;-35
2022/09/10 07:16:50;;;;;;;;;;;;;;;20.93;100.00;101040.75;5054309;28;20400;-36
2022/09/10 07:19:19;;;;;;;;;;;;;;;21.47;100.00;101054.31;5053361;28;19928;-34
2022/09/10 07:21:48;;;;;;;;;;;;;;;21.87;100.00;101053.22;5071328;28;19935;-33
2022/09/10 07:24:18;;;;;;;;;;;;;;;22.20;100.00;101056.41;5067404;28;19928;-38
2022/09/10 07:27:06;;;;;;;;;;;;;;;22.69;100.00;101061.47;5057168;28;19967;-33
2022/09/10 07:29:36;;;;;;;;;;;;;;;23.13;100.00;101061.13;5053881;28;19928;-32
2022/09/10 07:32:09;;;;;;;;;;;;;;;23.59;100.00;101062.72;5039489;28;19967;-41
2022/09/10 07:34:40;;;;;;;;;;;;;;;23.85;100.00;101073.31;5049312;28;20420;-35
2022/09/10 07:37:08;;;;;;;;;;;;;;;23.94;100.00;101079.56;5054242;28;20297;-35
2022/09/10 07:39:36;;;;;;;;;;;;;;;23.90;100.00;101072.16;5058499;28;19928;-37
2022/09/10 07:42:05;;;;;;;;;;;;;;;23.86;100.00;101080.66;5069344;28;19950;-32
2022/09/10 07:44:37;;;;;;;;;;;;;;;23.83;100.00;101074.88;5053744;28;20424;-43
2022/09/10 07:47:06;;;;;;;;;;;;;;;23.75;100.00;101071.13;5071342;28;19928;-38
2022/09/10 07:49:33;;;;;;;;;;;;;;;23.50;100.00;101084.94;5071435;28;20002;-32
2022/09/10 07:52:03;;;;;;;;;;;;;;;23.22;100.00;101076.72;5054320;28;19932;-38
2022/09/10 07:54:37;;;;;;;;;;;;;;;23.01;100.00;101085.69;5052276;28;19959;-31
2022/09/10 07:57:05;;;;;;;;;;;;;;;22.84;100.00;101083.34;5053770;28;19936;-31
2022/09/10 07:59:34;;;;;;;;;;;;;;;22.99;100.00;101084.44;5053460;28;19924;-36
2022/09/10 08:02:06;;;;;;;;;;;;;;;23.41;100.00;101083.53;5070821;28;19963;-32
2022/09/10 08:04:36;;;;;;;;;;;;;;;23.95;100.00;101088.94;5059436;28;20343;-32
2022/09/10 08:07:07;;;;;;;;;;;;;;;24.43;100.00;101089.19;5053653;28;19925;-33
2022/09/10 08:09:37;;;;;;;;;;;;;;;24.77;100.00;101092.88;5051728;28;19972;-37
2022/09/10 08:12:07;;;;;;;;;;;;;;;25.05;100.00;101091.19;5053871;28;19970;-38
2022/09/10 08:14:36;;;;;;;;;;;;;;;25.25;100.00;101090.97;5052554;28;19935;-32
2022/09/10 08:17:05;;;;;;;;;;;;;;;25.35;100.00;101098.81;5053310;28;19928;-41
2022/09/10 08:19:38;;;;;;;;;;;;;;;25.37;100.00;101099.25;5053308;28;20015;-34
2022/09/10 08:22:06;;;;;;;;;;;;;;;25.27;98.45;101105.66;5059762;28;19929;-39
2022/09/10 08:24:43;;;;;;;;;;;;;;;25.07;97.58;101110.78;5062999;28;19932;-37
2022/09/10 08:27:11;;;;;;;;;;;;;;;24.92;98.85;101103.25;5053529;28;19928;-32
2022/09/10 08:29:40;;;;;;;;;;;;;;;24.79;98.59;101104.72;5070343;28;19925;-38
2022/09/10 08:32:11;;;;;;;;;;;;;;;24.70;99.46;101105.84;5051862;28;19925;-32
2022/09/10 08:34:39;;;;;;;;;;;;;;;24.79;99.80;101114.09;5051615;28;19928;-34
2022/09/10 08:37:09;;;;;;;;;;;;;;;24.98;97.78;101122.50;5063045;28;20305;-35
2022/09/10 08:39:38;;;;;;;;;;;;;;;25.11;95.21;101128.78;5052655;28;20378;-36
2022/09/10 08:42:12;;;;;;;;;;;;;;;25.11;96.16;101130.81;5052243;28;19931;-31
2022/09/10 08:44:47;;;;;;;;;;;;;;;25.11;91.30;101137.34;5052049;28;19924;-36
2022/09/10 08:47:25;;;;;;;;;;;;;;;25.14;94.24;101141.47;5052425;28;20456;-34
2022/09/10 08:49:57;;;;;;;;;;;;;;;25.00;90.80;101147.81;5051980;28;20809;-31
2022/09/10 08:52:29;;;;;;;;;;;;;;;24.77;90.88;101150.81;5052899;28;20049;-40
2022/09/10 08:55:01;;;;;;;;;;;;;;;24.66;92.97;101155.53;5052935;28;19924;-32
2022/09/10 08:57:32;;;;;;;;;;;;;;;24.68;93.43;101156.78;5051500;28;19925;-34
2022/09/10 09:00:01;;;;;;;;;;;;;;;24.77;87.38;101145.09;5037852;28;20011;-33
2022/09/10 09:02:44;;;;;;;;;;;;;;;25.03;90.39;101164.16;5052517;28;19924;-38
2022/09/10 09:05:19;;;;;;;;;;;;;;;25.13;87.78;101154.09;5038080;28;19924;-32
2022/09/10 09:07:51;;;;;;;;;;;;;;;25.11;88.57;101165.91;5057955;28;19975;-39
2022/09/10 09:10:20;;;;;;;;;;;;;;;25.18;88.21;101165.19;5037356;28;19981;-35
2022/09/10 09:12:54;;;;;;;;;;;;;;;25.10;87.07;101163.44;5057533;28;20008;-32
2022/09/10 09:15:26;;;;;;;;;;;;;;;24.95;85.67;101166.13;5069659;28;20378;-31
2022/09/10 09:18:05;;;;;;;;;;;;;;;24.52;80.08;101169.63;5069609;28;19924;-33
2022/09/10 09:20:40;;;;;;;;;;;;;;;24.27;87.89;101177.81;5070668;28;19935;-33
2022/09/10 09:23:12;;;;;;;;;;;;;;;24.44;90.49;101182.97;5052237;28;19963;-37
2022/09/10 09:25:45;;;;;;;;;;;;;;;24.83;84.99;101185.50;5069855;28;19924;-39
2022/09/10 09:28:16;;;;;;;;;;;;;;;25.07;87.21;101176.47;5052354;28;19946;-32
2022/09/10 09:30:48;;;;;;;;;;;;;;;25.54;88.04;101178.59;5065835;28;20396;-37
2022/09/10 09:33:21;;;;;;;;;;;;;;;25.70;81.17;101184.91;5051851;28;19928;-39
2022/09/10 09:35:51;;;;;;;;;;;;;;;25.89;84.82;101191.59;5052482;28;19971;-33
2022/09/10 09:38:22;;;;;;;;;;;;;;;26.32;79.60;101193.59;5044251;28;19924;-33
2022/09/10 09:40:55;;;;;;;;;;;;;;;26.57;78.51;101202.34;5061945;28;20332;-32
2022/09/10 09:43:28;;;;;;;;;;;;;;;26.92;78.39;101201.69;5065958;28;20011;-38
2022/09/10 09:45:56;;;;;;;;;;;;;;;27.24;75.52;101213.28;5052371;28;20577;-31
2022/09/10 09:48:32;;;;;;;;;;;;;;;27.39;71.62;101209.22;5053061;28;19928;-30
2022/09/10 09:51:00;;;;;;;;;;;;;;;27.48;70.99;101214.56;5056388;28;19924;-33
2022/09/10 09:53:29;;;;;;;;;;;;;;;27.60;67.88;101219.94;5072686;28;20298;-29
2022/09/10 09:55:58;;;;;;;;;;;;;;;27.67;66.77;101216.28;5073880;28;20767;-34
2022/09/10 09:58:33;;;;;;;;;;;;;;;27.59;66.04;101218.28;5073433;28;19959;-35
2022/09/10 10:01:11;;;;;;;;;;;;;;;27.36;64.38;101220.69;5071150;28;19940;-33
2022/09/10 10:03:47;;;;;;;;;;;;;;;27.15;67.87;101224.31;5071083;28;19925;-40
2022/09/10 10:06:16;;;;;;;;;;;;;;;26.99;67.42;101220.94;5073782;28;20284;-43
2022/09/10 10:08:45;;;;;;;;;;;;;;;26.96;70.54;101224.66;5072669;28;19951;-34
2022/09/10 10:11:15;;;;;;;;;;;;;;;27.09;68.27;101223.88;5074282;28;19931;-38
2022/09/10 10:13:44;;;;;;;;;;;;;;;27.12;66.23;101230.03;5073363;28;19993;-37
2022/09/10 10:16:16;;;;;;;;;;;;;;;27.06;66.30;101239.00;5053265;28;20318;-37
2022/09/10 10:18:45;;;;;;;;;;;;;;;26.88;66.81;101232.34;5067407;28;19924;-37
2022/09/10 10:21:14;;;;;;;;;;;;;;;26.64;66.88;101235.88;5072855;28;19928;-34
2022/09/10 10:23:42;;;;;;;;;;;;;;;26.32;66.38;101236.50;5073398;28;20270;-33
2022/09/10 10:26:31;;;;;;;;;;;;;;;25.97;67.85;101241.94;5073673;28;19968;-35
2022/09/10 10:29:00;;;;;;;;;;;;;;;25.72;70.48;101242.50;5067965;28;20336;-32
2022/09/10 10:31:39;;;;;;;;;;;;;;;25.46;70.98;101248.31;5073726;28;19960;-35
2022/09/10 10:34:22;;;;;;;;;;;;;;;25.13;74.49;101254.06;5073129;28;20308;-34
2022/09/10 10:36:55;;;;;;;;;;;;;;;24.88;71.50;101248.81;5061082;28;19925;-37
2022/09/10 10:39:25;;;;;;;;;;;;;;;25.01;78.44;101253.09;5073120;28;20344;-36
2022/09/10 10:42:03;;;;;;;;;;;;;;;25.23;75.38;101251.31;5055038;28;19928;-38
2022/09/10 10:44:48;;;;;;;;;;;;;;;25.30;69.31;101259.16;5072612;28;19974;-42
2022/09/10 10:47:23;;;;;;;;;;;;;;;25.36;73.92;101252.72;5053596;28;19972;-36
2022/09/10 10:49:58;;;;;;;;;;;;;;;25.56;69.13;101256.19;5067053;28;20401;-34
2022/09/10 10:52:32;;;;;;;;;;;;;;;25.86;71.13;101261.84;5053664;28;20255;-37
2022/09/10 10:55:06;;;;;;;;;;;;;;;26.03;68.46;101261.16;5067625;28;19986;-37
2022/09/10 10:57:44;;;;;;;;;;;;;;;26.11;69.42;101269.81;5061465;28;19960;-35
2022/09/10 11:00:14;;;;;;;;;;;;;;;25.92;64.62;101262.31;5072466;28;19967;-34
2022/09/10 11:02:44;;;;;;;;;;;;;;;25.74;66.03;101262.13;5072996;28;19929;-36
2022/09/10 11:05:18;;;;;;;;;;;;;;;25.64;69.17;101255.06;5072079;28;19925;-35
2022/09/10 11:07:46;;;;;;;;;;;;;;;25.73;68.72;101267.03;5073020;28;20374;-33
2022/09/10 11:10:17;;;;;;;;;;;;;;;25.89;69.38;101263.91;5072653;28;19951;-33
2022/09/10 11:12:46;;;;;;;;;;;;;;;26.05;67.90;101260.78;5072845;28;19955;-34
2022/09/10 11:15:19;;;;;;;;;;;;;;;26.17;68.18;101263.34;5071817;28;19924;-36
2022/09/10 11:17:50;;;;;;;;;;;;;;;26.31;66.93;101257.75;5071985;28;20015;-33
2022/09/10 11:20:22;;;;;;;;;;;;;;;26.33;65.27;101266.78;5072755;28;20351;-36
2022/09/10 11:23:00;;;;;;;;;;;;;;;26.34;65.45;101251.25;5069860;28;19978;-34
2022/09/10 11:25:29;;;;;;;;;;;;;;;26.29;64.49;101250.75;5071593;28;20027;-33
2022/09/10 11:28:00;;;;;;;;;;;;;;;26.17;63.62;101265.38;5072346;28;19932;-35
2022/09/10 11:30:28;;;;;;;;;;;;;;;26.26;67.11;101260.94;5072272;28;19928;-33
2022/09/10 11:32:59;;;;;;;;;;;;;;;26.35;67.62;101264.34;5071594;28;20030;-36
2022/09/10 11:35:30;;;;;;;;;;;;;;;26.42;64.85;101269.28;5072208;28;19928;-34
2022/09/10 11:38:06;;;;;;;;;;;;;;;26.40;65.10;101260.25;5072119;28;19932;-38
2022/09/10 11:40:38;;;;;;;;;;;;;;;26.48;64.47;101269.72;5071433;28;19936;-34
2022/09/10 11:43:07;;;;;;;;;;;;;;;26.46;62.83;101269.31;5072228;28;19960;-37
2022/09/10 11:45:45;;;;;;;;;;;;;;;26.38;61.96;101272.09;5071386;28;19975;-36
2022/09/10 11:48:18;;;;;;;;;;;;;;;26.25;64.73;101279.34;5068653;28;19928;-34
2022/09/10 11:50:49;;;;;;;;;;;;;;;26.20;61.15;101284.59;5057275;28;19929;-34
2022/09/10 11:53:19;;;;;;;;;;;;;;;26.15;65.55;101284.97;5066853;28;20373;-34
2022/09/10 11:56:00;;;;;;;;;;;;;;;26.09;65.80;101281.66;5071815;28;20263;-41
2022/09/10 11:58:35;;;;;;;;;;;;;;;26.00;65.95;101275.44;5067641;28;19929;-33
2022/09/10 12:01:07;;;;;;;;;;;;;;;25.94;66.61;101282.75;5055713;28;19924;-42
2022/09/10 12:03:57;;;;;;;;;;;;;;;25.99;68.21;101276.66;5071886;28;19952;-32
2022/09/10 12:06:30;;;;;;;;;;;;;;;26.14;66.59;101284.16;5057866;28;19924;-33
2022/09/10 12:09:02;;;;;;;;;;;;;;;26.22;66.84;101300.16;5071316;28;19942;-32
2022/09/10 12:11:34;;;;;;;;;;;;;;;26.37;66.51;101298.28;5071428;28;19924;-36
2022/09/10 12:14:05;;;;;;;;;;;;;;;26.44;65.68;101292.59;5071032;28;19975;-33
2022/09/10 12:16:35;;;;;;;;;;;;;;;26.48;66.54;101301.22;5056041;28;19928;-42
2022/09/10 12:19:05;;;;;;;;;;;;;;;26.51;65.30;101300.44;5071560;28;19932;-34
2022/09/10 12:21:36;;;;;;;;;;;;;;;26.54;65.48;101305.38;5052776;28;19943;-39
2022/09/10 12:24:06;;;;;;;;;;;;;;;26.46;61.65;101309.38;5071426;28;20455;-44
2022/09/10 12:26:41;;;;;;;;;;;;;;;26.34;64.49;101305.63;5071695;28;19925;-35
2022/09/10 12:29:24;;;;;;;;;;;;;;;26.29;65.58;101308.00;5070823;28;19932;-38
2022/09/10 12:32:16;;;;;;;;;;;;;;;26.23;65.10;101309.56;5071487;28;19958;-36
2022/09/10 12:34:49;;;;;;;;;;;;;;;26.30;67.20;101301.91;5050994;28;20336;-30
2022/09/10 12:37:26;;;;;;;;;;;;;;;26.33;64.77;101303.97;5056599;28;19925;-42
2022/09/10 12:40:18;;;;;;;;;;;;;;;26.23;64.12;101312.41;5067802;28;20369;-36
2022/09/10 12:42:45;;;;;;;;;;;;;;;26.18;65.82;101310.75;5043241;28;19924;-33
2022/09/10 12:45:33;;;;;;;;;;;;;;;26.16;65.66;101321.78;5053581;28;20385;-36
2022/09/10 12:48:11;;;;;;;;;;;;;;;25.98;64.92;101315.88;5071386;28;19977;-38
2022/09/10 12:50:44;;;;;;;;;;;;;;;25.84;65.83;101318.59;5070449;28;19928;-38